createdAt,value
2017-05-31T00:00:29.768Z,1011.96
2017-05-31T00:01:23.874Z,1011.99
2017-05-31T00:02:12.894Z,1011.98
2017-05-31T00:03:06.882Z,1011.98
2017-05-31T00:04:01.913Z,1012.01
2017-05-31T00:04:56.999Z,1012.00
2017-05-31T00:05:51.039Z,1012.05
2017-05-31T00:06:52.086Z,1012.04
2017-05-31T00:07:46.110Z,1012.04
2017-05-31T00:08:46.165Z,1012.05
2017-05-31T00:09:41.163Z,1012.10
2017-05-31T00:10:36.187Z,1012.09
2017-05-31T00:11:36.252Z,1012.11
2017-05-31T00:12:24.291Z,1012.09
2017-05-31T00:13:12.279Z,1012.11
2017-05-31T00:14:00.387Z,1012.10
2017-05-31T00:14:55.403Z,1012.13
2017-05-31T00:15:56.432Z,1012.08
2017-05-31T00:16:50.483Z,1012.10
2017-05-31T00:17:50.672Z,1012.11
2017-05-31T00:18:45.974Z,1012.09
2017-05-31T00:19:45.582Z,1012.15
2017-05-31T00:20:45.650Z,1012.14
2017-05-31T00:21:45.714Z,1012.12
2017-05-31T00:22:39.700Z,1012.12
2017-05-31T00:23:39.762Z,1012.15
2017-05-31T00:24:34.764Z,1012.17
2017-05-31T00:25:34.779Z,1012.15
2017-05-31T00:26:34.855Z,1012.19
2017-05-31T00:27:34.857Z,1012.16
2017-05-31T00:28:28.917Z,1012.17
2017-05-31T00:29:29.032Z,1012.17
2017-05-31T00:30:24.014Z,1012.18
2017-05-31T00:31:24.190Z,1012.23
2017-05-31T00:32:18.042Z,1012.22
2017-05-31T00:33:18.104Z,1012.26
2017-05-31T00:34:13.087Z,1012.25
2017-05-31T00:35:08.194Z,1012.27
2017-05-31T00:36:08.180Z,1012.26
2017-05-31T00:37:03.273Z,1012.26
2017-05-31T00:37:58.246Z,1012.27
2017-05-31T00:38:59.257Z,1012.27
2017-05-31T00:40:00.301Z,1012.31
2017-05-31T00:40:55.393Z,1012.26
2017-05-31T00:41:49.454Z,1012.31
2017-05-31T00:42:49.468Z,1012.36
2017-05-31T00:43:49.503Z,1012.31
2017-05-31T00:44:44.499Z,1012.33
2017-05-31T00:45:38.546Z,1012.33
2017-05-31T00:46:38.702Z,1012.34
2017-05-31T00:47:33.616Z,1012.39
2017-05-31T00:48:33.651Z,1012.33
2017-05-31T00:49:33.707Z,1012.34
2017-05-31T00:50:33.728Z,1012.33
2017-05-31T00:51:27.986Z,1012.33
2017-05-31T00:52:27.873Z,1012.33
2017-05-31T00:53:22.808Z,1012.32
2017-05-31T00:54:17.852Z,1012.31
2017-05-31T00:55:18.887Z,1012.34
2017-05-31T00:56:18.966Z,1012.31
2017-05-31T00:57:18.953Z,1012.32
2017-05-31T00:58:13.977Z,1012.32
2017-05-31T00:59:08.046Z,1012.32
2017-05-31T01:00:08.093Z,1012.34
2017-05-31T01:01:03.070Z,1012.31
2017-05-31T01:02:03.139Z,1012.37
2017-05-31T01:02:57.189Z,1012.36
2017-05-31T01:03:57.246Z,1012.34
2017-05-31T01:04:52.259Z,1012.34
2017-05-31T01:05:47.293Z,1012.35
2017-05-31T01:06:47.295Z,1012.36
2017-05-31T01:07:42.346Z,1012.39
2017-05-31T01:08:37.349Z,1012.39
2017-05-31T01:09:43.552Z,1012.41
2017-05-31T01:10:37.494Z,1012.39
2017-05-31T01:11:37.505Z,1012.41
2017-05-31T01:12:32.561Z,1012.40
2017-05-31T01:13:38.583Z,1012.43
2017-05-31T01:14:33.583Z,1012.45
2017-05-31T01:15:27.749Z,1012.45
2017-05-31T01:16:28.678Z,1012.44
2017-05-31T01:17:23.694Z,1012.45
2017-05-31T01:18:17.760Z,1012.45
2017-05-31T01:19:17.769Z,1012.42
2017-05-31T01:20:17.804Z,1012.47
2017-05-31T01:21:12.872Z,1012.44
2017-05-31T01:22:06.890Z,1012.39
2017-05-31T01:23:06.922Z,1012.43
2017-05-31T01:24:02.013Z,1012.43
2017-05-31T01:24:56.990Z,1012.42
2017-05-31T01:26:03.044Z,1012.45
2017-05-31T01:26:57.200Z,1012.42
2017-05-31T01:27:57.094Z,1012.43
2017-05-31T01:28:52.136Z,1012.46
2017-05-31T01:29:52.197Z,1012.48
2017-05-31T01:30:46.217Z,1012.51
2017-05-31T01:31:46.256Z,1012.51
2017-05-31T01:32:41.287Z,1012.52
2017-05-31T01:33:36.320Z,1012.50
2017-05-31T01:34:36.353Z,1012.51
2017-05-31T01:35:31.643Z,1012.48
2017-05-31T01:36:26.388Z,1012.50
2017-05-31T01:37:26.417Z,1012.50
2017-05-31T01:38:21.482Z,1012.50
2017-05-31T01:39:16.562Z,1012.50
2017-05-31T01:40:17.596Z,1012.55
2017-05-31T01:41:17.578Z,1012.54
2017-05-31T01:42:17.619Z,1012.55
2017-05-31T01:43:12.669Z,1012.58
2017-05-31T01:44:06.715Z,1012.58
2017-05-31T01:45:07.760Z,1012.58
2017-05-31T01:46:07.772Z,1012.59
2017-05-31T01:47:07.793Z,1012.56
2017-05-31T01:48:02.827Z,1012.59
2017-05-31T01:48:56.965Z,1012.63
2017-05-31T01:49:56.899Z,1012.65
2017-05-31T01:50:51.969Z,1012.64
2017-05-31T01:51:46.991Z,1012.68
2017-05-31T01:52:47.984Z,1012.67
2017-05-31T01:53:48.061Z,1012.68
2017-05-31T01:54:48.060Z,1012.70
2017-05-31T01:55:43.602Z,1012.69
2017-05-31T01:56:37.135Z,1012.67
2017-05-31T01:57:38.185Z,1012.69
2017-05-31T01:58:38.214Z,1012.70
2017-05-31T01:59:38.252Z,1012.67
2017-05-31T02:00:33.279Z,1012.70
2017-05-31T02:01:27.392Z,1012.71
2017-05-31T02:02:27.352Z,1012.70
2017-05-31T02:03:22.446Z,1012.69
2017-05-31T02:04:17.448Z,1012.72
2017-05-31T02:05:18.517Z,1012.67
2017-05-31T02:06:18.476Z,1012.68
2017-05-31T02:07:18.486Z,1012.64
2017-05-31T02:08:13.590Z,1012.64
2017-05-31T02:09:07.584Z,1012.68
2017-05-31T02:10:07.644Z,1012.63
2017-05-31T02:11:03.069Z,1012.65
2017-05-31T02:12:02.687Z,1012.66
2017-05-31T02:12:56.748Z,1012.62
2017-05-31T02:13:56.905Z,1012.60
2017-05-31T02:14:51.842Z,1012.61
2017-05-31T02:15:47.012Z,1012.60
2017-05-31T02:16:46.904Z,1012.58
2017-05-31T02:17:41.872Z,1012.58
2017-05-31T02:18:36.966Z,1012.61
2017-05-31T02:19:37.959Z,1012.62
2017-05-31T02:20:39.028Z,1012.65
2017-05-31T02:21:34.065Z,1012.64
2017-05-31T02:22:28.227Z,1012.66
2017-05-31T02:23:28.122Z,1012.66
2017-05-31T02:24:28.176Z,1012.63
2017-05-31T02:25:28.396Z,1012.66
2017-05-31T02:26:34.212Z,1012.68
2017-05-31T02:27:29.229Z,1012.65
2017-05-31T02:28:29.274Z,1012.66
2017-05-31T02:29:23.295Z,1012.67
2017-05-31T02:30:24.337Z,1012.66
2017-05-31T02:31:25.372Z,1012.69
2017-05-31T02:32:25.448Z,1012.65
2017-05-31T02:33:25.442Z,1012.70
2017-05-31T02:34:20.504Z,1012.72
2017-05-31T02:35:14.498Z,1012.67
2017-05-31T02:36:14.677Z,1012.70
2017-05-31T02:37:09.631Z,1012.72
2017-05-31T02:38:04.687Z,1012.70
2017-05-31T02:39:05.736Z,1012.69
2017-05-31T02:40:05.681Z,1012.65
2017-05-31T02:41:05.664Z,1012.70
2017-05-31T02:42:00.775Z,1012.66
2017-05-31T02:42:54.794Z,1012.68
2017-05-31T02:43:54.881Z,1012.69
2017-05-31T02:44:49.862Z,1012.68
2017-05-31T02:45:49.877Z,1012.72
2017-05-31T02:46:43.962Z,1012.66
2017-05-31T02:47:43.984Z,1012.64
2017-05-31T02:48:38.977Z,1012.65
2017-05-31T02:49:33.109Z,1012.69
2017-05-31T02:50:33.095Z,1012.67
2017-05-31T02:51:21.126Z,1012.66
2017-05-31T02:52:09.191Z,1012.68
2017-05-31T02:52:58.272Z,1012.65
2017-05-31T02:53:58.228Z,1012.64
2017-05-31T02:54:46.266Z,1012.64
2017-05-31T02:55:34.355Z,1012.63
2017-05-31T02:56:28.396Z,1012.66
2017-05-31T02:57:22.432Z,1012.67
2017-05-31T02:58:17.488Z,1012.66
2017-05-31T02:59:12.467Z,1012.65
2017-05-31T03:00:12.474Z,1012.65
2017-05-31T03:01:01.555Z,1012.68
2017-05-31T03:01:55.605Z,1012.69
2017-05-31T03:02:44.682Z,1012.70
2017-05-31T03:03:45.723Z,1012.72
2017-05-31T03:04:40.675Z,1012.71
2017-05-31T03:05:34.944Z,1012.72
2017-05-31T03:06:28.812Z,1012.71
2017-05-31T03:07:23.185Z,1012.77
2017-05-31T03:08:11.844Z,1012.71
2017-05-31T03:09:07.050Z,1012.75
2017-05-31T03:09:55.937Z,1012.74
2017-05-31T03:10:43.993Z,1012.76
2017-05-31T03:11:33.002Z,1012.73
2017-05-31T03:12:27.095Z,1012.75
2017-05-31T03:13:22.105Z,1012.73
2017-05-31T03:14:10.202Z,1012.76
2017-05-31T03:14:59.216Z,1012.77
2017-05-31T03:15:53.254Z,1012.80
2017-05-31T03:16:42.275Z,1012.77
2017-05-31T03:17:37.413Z,1012.79
2017-05-31T03:18:31.368Z,1012.79
2017-05-31T03:19:32.395Z,1012.76
2017-05-31T03:20:33.418Z,1012.76
2017-05-31T03:21:28.483Z,1012.76
2017-05-31T03:22:23.488Z,1012.77
2017-05-31T03:23:18.610Z,1012.78
2017-05-31T03:24:12.578Z,1012.77
2017-05-31T03:25:12.752Z,1012.80
2017-05-31T03:26:01.676Z,1012.79
2017-05-31T03:26:49.711Z,1012.82
2017-05-31T03:27:43.776Z,1012.79
2017-05-31T03:28:37.801Z,1012.78
2017-05-31T03:29:38.759Z,1012.82
2017-05-31T03:30:39.015Z,1012.83
2017-05-31T03:31:33.914Z,1012.79
2017-05-31T03:32:33.915Z,1012.81
2017-05-31T03:33:33.979Z,1012.80
2017-05-31T03:34:34.015Z,1012.78
2017-05-31T03:35:28.023Z,1012.76
2017-05-31T03:36:17.089Z,1012.75
2017-05-31T03:37:17.089Z,1012.80
2017-05-31T03:38:12.187Z,1012.82
2017-05-31T03:39:07.211Z,1012.79
2017-05-31T03:40:02.232Z,1012.83
2017-05-31T03:40:51.280Z,1012.78
2017-05-31T03:41:51.384Z,1012.81
2017-05-31T03:42:45.349Z,1012.81
2017-05-31T03:43:45.402Z,1012.84
2017-05-31T03:44:40.415Z,1012.84
2017-05-31T03:45:35.492Z,1012.82
2017-05-31T03:46:29.493Z,1012.83
2017-05-31T03:47:24.586Z,1012.82
2017-05-31T03:48:13.589Z,1012.80
2017-05-31T03:49:01.583Z,1012.84
2017-05-31T03:49:49.677Z,1012.84
2017-05-31T03:50:43.721Z,1012.89
2017-05-31T03:51:37.780Z,1012.89
2017-05-31T03:52:25.799Z,1012.87
2017-05-31T03:53:19.851Z,1012.89
2017-05-31T03:54:13.844Z,1012.94
2017-05-31T03:55:01.925Z,1012.94
2017-05-31T03:55:56.993Z,1012.92
2017-05-31T03:56:52.006Z,1012.98
2017-05-31T03:57:46.297Z,1013.02
2017-05-31T03:58:40.529Z,1013.03
2017-05-31T03:59:34.087Z,1013.06
2017-05-31T04:00:34.145Z,1013.11
2017-05-31T04:01:29.204Z,1013.12
2017-05-31T04:02:23.208Z,1013.13
2017-05-31T04:03:12.547Z,1013.15
2017-05-31T04:04:00.309Z,1013.14
2017-05-31T04:04:55.356Z,1013.13
2017-05-31T04:05:43.406Z,1013.19
2017-05-31T04:06:38.890Z,1013.18
2017-05-31T04:07:33.481Z,1013.19
2017-05-31T04:08:27.639Z,1013.20
2017-05-31T04:09:22.556Z,1013.24
2017-05-31T04:10:10.626Z,1013.23
2017-05-31T04:10:58.670Z,1013.21
2017-05-31T04:11:52.703Z,1013.19
2017-05-31T04:12:41.693Z,1013.20
2017-05-31T04:13:35.818Z,1013.19
2017-05-31T04:14:23.789Z,1013.17
2017-05-31T04:15:24.090Z,1013.19
2017-05-31T04:16:18.900Z,1013.23
2017-05-31T04:17:18.904Z,1013.25
2017-05-31T04:18:18.957Z,1013.25
2017-05-31T04:19:25.011Z,1013.26
2017-05-31T04:20:25.431Z,1013.27
2017-05-31T04:21:26.078Z,1013.31
2017-05-31T04:22:27.078Z,1013.35
2017-05-31T04:23:21.114Z,1013.31
2017-05-31T04:24:15.188Z,1013.30
2017-05-31T04:25:03.232Z,1013.31
2017-05-31T04:25:52.268Z,1013.37
2017-05-31T04:26:47.283Z,1013.34
2017-05-31T04:27:41.376Z,1013.38
2017-05-31T04:28:36.413Z,1013.38
2017-05-31T04:29:30.408Z,1013.39
2017-05-31T04:30:30.497Z,1013.44
2017-05-31T04:31:24.479Z,1013.42
2017-05-31T04:32:24.577Z,1013.42
2017-05-31T04:33:18.579Z,1013.42
2017-05-31T04:34:12.621Z,1013.48
2017-05-31T04:35:06.687Z,1013.52
2017-05-31T04:35:54.994Z,1013.47
2017-05-31T04:36:54.809Z,1013.39
2017-05-31T04:37:48.759Z,1013.43
2017-05-31T04:38:49.036Z,1013.44
2017-05-31T04:39:43.857Z,1013.50
2017-05-31T04:40:38.883Z,1013.51
2017-05-31T04:41:38.918Z,1013.51
2017-05-31T04:42:33.999Z,1013.51
2017-05-31T04:43:28.022Z,1013.52
2017-05-31T04:44:17.062Z,1013.51
2017-05-31T04:45:18.097Z,1013.50
2017-05-31T04:46:13.097Z,1013.48
2017-05-31T04:47:02.212Z,1013.50
2017-05-31T04:48:02.194Z,1013.51
2017-05-31T04:49:02.260Z,1013.51
2017-05-31T04:50:02.306Z,1013.54
2017-05-31T04:50:50.341Z,1013.55
2017-05-31T04:51:50.356Z,1013.58
2017-05-31T04:52:50.411Z,1013.58
2017-05-31T04:53:50.428Z,1013.57
2017-05-31T04:54:50.512Z,1013.59
2017-05-31T04:55:39.520Z,1013.61
2017-05-31T04:56:33.591Z,1013.61
2017-05-31T04:57:22.642Z,1013.63
2017-05-31T04:58:16.687Z,1013.63
2017-05-31T04:59:11.768Z,1013.66
2017-05-31T05:00:11.756Z,1013.67
2017-05-31T05:01:11.815Z,1013.64
2017-05-31T05:02:11.814Z,1013.64
2017-05-31T05:03:17.900Z,1013.63
2017-05-31T05:04:13.081Z,1013.62
2017-05-31T05:05:06.929Z,1013.61
2017-05-31T05:06:07.069Z,1013.61
2017-05-31T05:07:02.061Z,1013.61
2017-05-31T05:07:57.128Z,1013.56
2017-05-31T05:08:57.165Z,1013.56
2017-05-31T05:09:51.169Z,1013.57
2017-05-31T05:10:46.213Z,1013.59
2017-05-31T05:11:34.274Z,1013.51
2017-05-31T05:12:29.325Z,1013.59
2017-05-31T05:13:29.362Z,1013.63
2017-05-31T05:14:23.426Z,1013.60
2017-05-31T05:15:23.907Z,1013.65
2017-05-31T05:16:12.490Z,1013.64
2017-05-31T05:17:12.575Z,1013.65
2017-05-31T05:18:12.642Z,1013.57
2017-05-31T05:19:12.705Z,1013.69
2017-05-31T05:20:12.741Z,1013.69
2017-05-31T05:21:12.716Z,1013.72
2017-05-31T05:22:12.794Z,1013.78
2017-05-31T05:23:06.844Z,1013.73
2017-05-31T05:24:01.820Z,1013.80
2017-05-31T05:24:56.906Z,1013.78
2017-05-31T05:25:45.947Z,1013.73
2017-05-31T05:26:33.989Z,1013.74
2017-05-31T05:27:29.358Z,1013.73
2017-05-31T05:28:29.094Z,1013.79
2017-05-31T05:29:24.167Z,1013.79
2017-05-31T05:30:18.427Z,1013.79
2017-05-31T05:31:18.503Z,1013.74
2017-05-31T05:32:18.286Z,1013.77
2017-05-31T05:33:13.293Z,1013.76
2017-05-31T05:34:07.419Z,1013.72
2017-05-31T05:34:55.420Z,1013.76
2017-05-31T05:35:50.467Z,1013.78
2017-05-31T05:36:45.578Z,1013.79
2017-05-31T05:37:40.579Z,1013.91
2017-05-31T05:38:34.664Z,1013.85
2017-05-31T05:39:28.703Z,1013.84
2017-05-31T05:40:17.702Z,1013.73
2017-05-31T05:41:06.790Z,1013.82
2017-05-31T05:42:01.117Z,1013.85
2017-05-31T05:42:55.892Z,1013.88
2017-05-31T05:43:55.953Z,1013.89
2017-05-31T05:44:49.982Z,1013.89
2017-05-31T05:45:38.015Z,1013.83
2017-05-31T05:46:33.117Z,1013.80
2017-05-31T05:47:22.426Z,1013.78
2017-05-31T05:48:16.192Z,1013.79
2017-05-31T05:49:16.233Z,1013.72
2017-05-31T05:50:10.285Z,1013.77
2017-05-31T05:51:10.386Z,1013.92
2017-05-31T05:51:59.369Z,1013.88
2017-05-31T05:52:48.821Z,1013.89
2017-05-31T05:53:37.502Z,1013.93
2017-05-31T05:54:31.610Z,1013.97
2017-05-31T05:55:31.589Z,1013.95
2017-05-31T05:56:21.094Z,1013.94
2017-05-31T05:57:14.735Z,1013.98
2017-05-31T05:58:09.013Z,1014.00
2017-05-31T05:59:02.921Z,1013.96
2017-05-31T05:59:56.863Z,1014.00
2017-05-31T06:00:50.886Z,1014.02
2017-05-31T06:01:51.049Z,1014.00
2017-05-31T06:02:45.127Z,1014.05
2017-05-31T06:03:34.408Z,1014.03
2017-05-31T06:04:34.121Z,1014.08
2017-05-31T06:05:23.649Z,1014.07
2017-05-31T06:06:12.207Z,1014.10
2017-05-31T06:07:01.553Z,1014.08
2017-05-31T06:07:49.452Z,1014.11
2017-05-31T06:08:49.693Z,1014.11
2017-05-31T06:09:44.515Z,1014.07
2017-05-31T06:10:32.470Z,1014.06
2017-05-31T06:11:32.532Z,1014.10
2017-05-31T06:12:27.608Z,1014.14
2017-05-31T06:13:21.593Z,1014.16
2017-05-31T06:14:15.742Z,1014.16
2017-05-31T06:15:10.763Z,1014.20
2017-05-31T06:16:11.227Z,1014.16
2017-05-31T06:17:05.910Z,1014.16
2017-05-31T06:17:59.919Z,1014.14
2017-05-31T06:18:54.927Z,1014.16
2017-05-31T06:19:54.992Z,1014.22
2017-05-31T06:20:49.088Z,1014.21
2017-05-31T06:21:43.127Z,1014.23
2017-05-31T06:22:37.625Z,1014.20
2017-05-31T06:23:31.253Z,1014.26
2017-05-31T06:24:20.282Z,1014.26
2017-05-31T06:25:20.556Z,1014.30
2017-05-31T06:26:20.613Z,1014.28
2017-05-31T06:27:14.420Z,1014.28
2017-05-31T06:28:08.488Z,1014.28
2017-05-31T06:29:02.551Z,1014.27
2017-05-31T06:29:51.617Z,1014.34
2017-05-31T06:30:39.707Z,1014.36
2017-05-31T06:31:39.720Z,1014.40
2017-05-31T06:32:34.773Z,1014.34
2017-05-31T06:33:28.804Z,1014.36
2017-05-31T06:34:17.876Z,1014.31
2017-05-31T06:35:07.377Z,1014.34
2017-05-31T06:36:01.205Z,1014.33
2017-05-31T06:36:55.113Z,1014.40
2017-05-31T06:37:50.109Z,1014.38
2017-05-31T06:38:44.159Z,1014.37
2017-05-31T06:39:50.228Z,1014.45
2017-05-31T06:40:45.361Z,1014.49
2017-05-31T06:41:34.399Z,1014.42
2017-05-31T06:42:28.526Z,1014.43
2017-05-31T06:43:23.431Z,1014.49
2017-05-31T06:44:12.511Z,1014.43
2017-05-31T06:45:00.609Z,1014.45
2017-05-31T06:45:54.618Z,1014.45
2017-05-31T06:46:49.676Z,1014.49
2017-05-31T06:47:49.687Z,1014.52
2017-05-31T06:48:38.813Z,1014.55
2017-05-31T06:49:32.821Z,1014.55
2017-05-31T06:50:27.334Z,1014.58
2017-05-31T06:51:20.978Z,1014.60
2017-05-31T06:52:16.005Z,1014.58
2017-05-31T06:53:04.120Z,1014.55
2017-05-31T06:54:04.137Z,1014.56
2017-05-31T06:54:59.152Z,1014.56
2017-05-31T06:55:47.242Z,1014.54
2017-05-31T06:56:36.309Z,1014.57
2017-05-31T06:57:24.401Z,1014.65
2017-05-31T06:58:24.384Z,1014.65
2017-05-31T06:59:18.839Z,1014.66
2017-05-31T07:00:12.843Z,1014.68
2017-05-31T07:01:06.614Z,1014.62
2017-05-31T07:02:01.641Z,1014.70
2017-05-31T07:02:55.688Z,1014.66
2017-05-31T07:03:44.776Z,1014.70
2017-05-31T07:04:39.815Z,1014.69
2017-05-31T07:05:33.806Z,1014.73
2017-05-31T07:06:34.370Z,1014.74
2017-05-31T07:07:28.320Z,1014.72
2017-05-31T07:08:28.115Z,1014.72
2017-05-31T07:09:23.445Z,1014.70
2017-05-31T07:10:17.444Z,1014.65
2017-05-31T07:11:11.478Z,1014.74
2017-05-31T07:11:59.625Z,1014.69
2017-05-31T07:12:48.601Z,1014.69
2017-05-31T07:13:38.028Z,1014.68
2017-05-31T07:14:31.760Z,1014.91
2017-05-31T07:15:25.928Z,1014.78
2017-05-31T07:16:20.822Z,1014.79
2017-05-31T07:17:14.954Z,1014.86
2017-05-31T07:18:04.008Z,1014.86
2017-05-31T07:18:58.361Z,1014.68
2017-05-31T07:19:53.125Z,1014.88
2017-05-31T07:20:48.215Z,1014.85
2017-05-31T07:21:42.283Z,1014.82
2017-05-31T07:22:36.378Z,1014.66
2017-05-31T07:23:30.304Z,1014.79
2017-05-31T07:24:18.711Z,1014.90
2017-05-31T07:25:13.473Z,1014.86
2017-05-31T07:26:07.564Z,1014.86
2017-05-31T07:26:56.584Z,1014.86
2017-05-31T07:27:44.713Z,1014.74
2017-05-31T07:28:32.744Z,1014.91
2017-05-31T07:29:27.159Z,1014.93
2017-05-31T07:30:26.922Z,1014.90
2017-05-31T07:31:21.825Z,1014.93
2017-05-31T07:32:15.924Z,1014.89
2017-05-31T07:33:05.042Z,1014.72
2017-05-31T07:33:59.055Z,1015.02
2017-05-31T07:34:48.117Z,1014.93
2017-05-31T07:35:43.133Z,1015.04
2017-05-31T07:36:37.223Z,1015.02
2017-05-31T07:37:32.314Z,1015.13
2017-05-31T07:38:26.331Z,1015.10
2017-05-31T07:39:20.410Z,1014.98
2017-05-31T07:40:14.534Z,1014.97
2017-05-31T07:41:08.554Z,1014.77
2017-05-31T07:42:02.644Z,1014.81
2017-05-31T07:42:57.706Z,1015.09
2017-05-31T07:43:52.709Z,1014.91
2017-05-31T07:44:46.746Z,1015.14
2017-05-31T07:45:35.883Z,1015.17
2017-05-31T07:46:23.905Z,1015.15
2017-05-31T07:47:23.881Z,1014.90
2017-05-31T07:48:11.970Z,1014.87
2017-05-31T07:49:01.043Z,1015.15
2017-05-31T07:49:50.133Z,1015.17
2017-05-31T07:50:50.183Z,1015.18
2017-05-31T07:51:44.260Z,1015.09
2017-05-31T07:52:38.261Z,1015.12
2017-05-31T07:53:31.998Z,1015.06
2017-05-31T07:54:27.186Z,1015.05
2017-05-31T07:55:21.257Z,1014.94
2017-05-31T07:56:15.504Z,1015.12
2017-05-31T07:57:09.484Z,1015.24
2017-05-31T07:58:04.277Z,1015.36
2017-05-31T07:58:52.621Z,1015.38
2017-05-31T07:59:46.717Z,1015.34
2017-05-31T08:00:41.875Z,1015.23
2017-05-31T08:01:35.824Z,1015.12
2017-05-31T08:02:29.989Z,1015.09
2017-05-31T08:03:23.984Z,1014.99
2017-05-31T08:04:12.806Z,1014.88
2017-05-31T08:05:07.817Z,1015.25
2017-05-31T08:06:03.204Z,1015.04
2017-05-31T08:06:57.447Z,1015.28
2017-05-31T08:07:50.907Z,1015.44
2017-05-31T08:08:40.002Z,1015.36
2017-05-31T08:09:29.064Z,1015.18
2017-05-31T08:10:23.295Z,1015.25
2017-05-31T08:11:17.569Z,1015.29
2017-05-31T08:12:05.845Z,1015.27
2017-05-31T08:13:00.622Z,1015.22
2017-05-31T08:13:48.691Z,1015.24
2017-05-31T08:14:42.809Z,1015.25
2017-05-31T08:15:30.797Z,1015.28
2017-05-31T08:16:24.882Z,1015.38
2017-05-31T08:17:24.962Z,1015.31
2017-05-31T08:18:14.003Z,1015.06
2017-05-31T08:19:08.091Z,1015.03
2017-05-31T08:20:02.168Z,1015.13
2017-05-31T08:20:51.143Z,1015.44
2017-05-31T08:21:45.105Z,1015.40
2017-05-31T08:22:39.985Z,1015.44
2017-05-31T08:23:40.339Z,1015.48
2017-05-31T08:24:29.284Z,1015.48
2017-05-31T08:25:23.119Z,1015.45
2017-05-31T08:26:18.216Z,1015.35
2017-05-31T08:27:13.292Z,1015.49
2017-05-31T08:28:07.339Z,1015.40
2017-05-31T08:29:01.406Z,1015.12
2017-05-31T08:29:50.509Z,1015.22
2017-05-31T08:30:44.492Z,1015.20
2017-05-31T08:31:38.595Z,1015.24
2017-05-31T08:32:32.664Z,1015.34
2017-05-31T08:33:21.720Z,1015.52
2017-05-31T08:34:15.811Z,1015.17
2017-05-31T08:35:10.813Z,1015.41
2017-05-31T08:36:05.906Z,1015.39
2017-05-31T08:36:59.963Z,1015.23
2017-05-31T08:37:48.003Z,1015.16
2017-05-31T08:38:42.108Z,1015.41
2017-05-31T08:39:31.091Z,1015.47
2017-05-31T08:40:20.447Z,1015.35
2017-05-31T08:41:14.666Z,1015.21
2017-05-31T08:42:08.308Z,1015.34
2017-05-31T08:42:57.522Z,1015.55
2017-05-31T08:43:51.714Z,1015.40
2017-05-31T08:44:51.909Z,1015.19
2017-05-31T08:45:45.615Z,1015.44
2017-05-31T08:46:41.001Z,1015.15
2017-05-31T08:47:40.705Z,1015.44
2017-05-31T08:48:34.693Z,1015.50
2017-05-31T08:49:28.878Z,1015.33
2017-05-31T08:50:17.793Z,1015.38
2017-05-31T08:51:06.926Z,1015.44
2017-05-31T08:52:00.919Z,1015.20
2017-05-31T08:52:55.008Z,1015.35
2017-05-31T08:53:44.098Z,1015.42
2017-05-31T08:54:38.208Z,1015.25
2017-05-31T08:55:33.214Z,1015.27
2017-05-31T08:56:22.326Z,1015.37
2017-05-31T08:57:16.665Z,1015.49
2017-05-31T08:58:10.689Z,1015.55
2017-05-31T08:59:04.760Z,1015.52
2017-05-31T08:59:58.499Z,1015.49
2017-05-31T09:00:47.570Z,1015.45
2017-05-31T09:01:41.602Z,1015.55
2017-05-31T09:02:35.682Z,1015.49
2017-05-31T09:03:29.772Z,1015.70
2017-05-31T09:04:17.941Z,1015.65
2017-05-31T09:05:07.027Z,1015.57
2017-05-31T09:06:01.427Z,1015.41
2017-05-31T09:06:56.077Z,1015.21
2017-05-31T09:07:45.232Z,1015.31
2017-05-31T09:08:40.211Z,1015.48
2017-05-31T09:09:29.529Z,1015.44
2017-05-31T09:10:18.703Z,1015.40
2017-05-31T09:11:07.393Z,1015.46
2017-05-31T09:12:01.918Z,1015.46
2017-05-31T09:12:49.509Z,1015.53
2017-05-31T09:13:43.958Z,1015.61
2017-05-31T09:14:38.663Z,1015.73
2017-05-31T09:15:28.464Z,1015.53
2017-05-31T09:16:15.815Z,1015.61
2017-05-31T09:17:04.879Z,1015.45
2017-05-31T09:17:52.923Z,1015.50
2017-05-31T09:18:46.970Z,1015.63
2017-05-31T09:19:41.025Z,1015.69
2017-05-31T09:20:30.627Z,1015.80
2017-05-31T09:21:25.189Z,1015.64
2017-05-31T09:22:14.255Z,1015.61
2017-05-31T09:23:03.317Z,1015.54
2017-05-31T09:23:58.293Z,1015.56
2017-05-31T09:24:47.435Z,1015.44
2017-05-31T09:25:42.533Z,1015.38
2017-05-31T09:26:36.516Z,1015.43
2017-05-31T09:27:25.580Z,1015.57
2017-05-31T09:28:26.027Z,1015.52
2017-05-31T09:29:13.723Z,1015.55
2017-05-31T09:30:14.123Z,1015.39
2017-05-31T09:31:08.889Z,1015.45
2017-05-31T09:32:02.883Z,1015.52
2017-05-31T09:32:50.921Z,1015.58
2017-05-31T09:33:44.964Z,1015.70
2017-05-31T09:34:39.216Z,1016.05
2017-05-31T09:35:39.091Z,1016.06
2017-05-31T09:36:34.486Z,1016.05
2017-05-31T09:37:29.369Z,1016.02
2017-05-31T09:38:17.500Z,1015.77
2017-05-31T09:39:11.628Z,1015.57
2017-05-31T09:40:00.530Z,1015.59
2017-05-31T09:40:54.777Z,1015.79
2017-05-31T09:41:50.116Z,1015.62
2017-05-31T09:42:44.992Z,1015.51
2017-05-31T09:43:33.993Z,1015.46
2017-05-31T09:44:29.066Z,1015.76
2017-05-31T09:45:23.142Z,1015.43
2017-05-31T09:46:18.207Z,1015.34
2017-05-31T09:47:18.281Z,1015.42
2017-05-31T09:48:12.338Z,1015.39
2017-05-31T09:49:01.223Z,1015.50
2017-05-31T09:49:56.229Z,1015.54
2017-05-31T09:50:57.400Z,1015.64
2017-05-31T09:51:58.190Z,1015.76
2017-05-31T09:52:52.481Z,1015.71
2017-05-31T09:53:40.290Z,1015.67
2017-05-31T09:54:34.338Z,1015.68
2017-05-31T09:55:22.395Z,1015.79
2017-05-31T09:56:22.731Z,1016.07
2017-05-31T09:57:22.860Z,1015.87
2017-05-31T09:58:16.561Z,1015.83
2017-05-31T09:59:05.924Z,1015.85
2017-05-31T10:00:00.019Z,1015.82
2017-05-31T10:00:49.129Z,1015.62
2017-05-31T10:01:43.121Z,1015.93
2017-05-31T10:02:32.280Z,1016.05
2017-05-31T10:03:27.352Z,1015.97
2017-05-31T10:04:16.431Z,1015.79
2017-05-31T10:05:10.471Z,1015.35
2017-05-31T10:06:04.504Z,1015.66
2017-05-31T10:06:53.640Z,1015.29
2017-05-31T10:07:42.730Z,1015.35
2017-05-31T10:08:37.722Z,1015.39
2017-05-31T10:09:26.870Z,1015.47
2017-05-31T10:10:15.875Z,1015.61
2017-05-31T10:11:05.004Z,1015.63
2017-05-31T10:11:59.027Z,1015.63
2017-05-31T10:12:54.100Z,1015.64
2017-05-31T10:13:41.794Z,1015.77
2017-05-31T10:14:31.280Z,1015.66
2017-05-31T10:15:26.166Z,1015.70
2017-05-31T10:16:20.028Z,1015.88
2017-05-31T10:17:14.003Z,1015.83
2017-05-31T10:18:09.389Z,1015.87
2017-05-31T10:19:09.094Z,1015.84
2017-05-31T10:20:03.481Z,1015.98
2017-05-31T10:21:03.682Z,1015.70
2017-05-31T10:21:57.644Z,1015.70
2017-05-31T10:22:51.689Z,1015.52
2017-05-31T10:23:40.873Z,1015.66
2017-05-31T10:24:34.868Z,1015.56
2017-05-31T10:25:24.001Z,1015.36
2017-05-31T10:26:18.028Z,1015.42
2017-05-31T10:27:13.126Z,1015.60
2017-05-31T10:28:07.096Z,1015.83
2017-05-31T10:29:01.248Z,1015.79
2017-05-31T10:29:49.267Z,1015.74
2017-05-31T10:30:43.356Z,1015.66
2017-05-31T10:31:37.461Z,1015.55
2017-05-31T10:32:26.494Z,1015.54
2017-05-31T10:33:15.677Z,1015.59
2017-05-31T10:34:04.678Z,1015.67
2017-05-31T10:34:52.740Z,1015.88
2017-05-31T10:35:46.853Z,1015.64
2017-05-31T10:36:40.899Z,1015.78
2017-05-31T10:37:35.971Z,1015.85
2017-05-31T10:38:30.100Z,1016.12
2017-05-31T10:39:18.101Z,1015.78
2017-05-31T10:40:12.184Z,1015.81
2017-05-31T10:41:06.214Z,1015.72
2017-05-31T10:42:07.404Z,1015.48
2017-05-31T10:42:55.481Z,1015.21
2017-05-31T10:43:49.543Z,1015.28
2017-05-31T10:44:43.957Z,1015.31
2017-05-31T10:45:38.675Z,1015.28
2017-05-31T10:46:27.693Z,1015.37
2017-05-31T10:47:22.752Z,1015.43
2017-05-31T10:48:11.818Z,1015.48
2017-05-31T10:49:06.779Z,1015.41
2017-05-31T10:50:01.017Z,1015.44
2017-05-31T10:50:55.800Z,1015.56
2017-05-31T10:51:44.706Z,1015.61
2017-05-31T10:52:44.786Z,1015.64
2017-05-31T10:53:33.808Z,1015.69
2017-05-31T10:54:22.890Z,1015.68
2017-05-31T10:55:12.399Z,1015.82
2017-05-31T10:55:59.965Z,1015.77
2017-05-31T10:57:01.064Z,1015.80
2017-05-31T10:58:01.127Z,1015.79
2017-05-31T10:58:50.350Z,1015.84
2017-05-31T10:59:38.227Z,1015.76
2017-05-31T11:00:33.090Z,1015.70